createdAt,value
2022-12-16T00:03:48.774Z,57.95
2022-12-16T00:08:51.826Z,61.63
2022-12-16T00:13:55.880Z,58.17
2022-12-16T00:18:58.275Z,58.80
2022-12-16T00:24:00.644Z,60.28
2022-12-16T00:29:05.414Z,63.15
2022-12-16T00:34:07.851Z,55.47
2022-12-16T00:39:10.992Z,60.17
2022-12-16T00:44:14.833Z,65.13
2022-12-16T00:49:17.302Z,59.30
2022-12-16T00:54:19.716Z,60.92
2022-12-16T00:59:23.515Z,60.10
2022-12-16T01:04:26.703Z,60.65
2022-12-16T01:09:29.106Z,60.75
2022-12-16T01:14:32.965Z,57.25
2022-12-16T01:19:35.383Z,58.85
2022-12-16T01:24:37.800Z,59.35
2022-12-16T01:29:42.053Z,52.95
2022-12-16T01:34:47.380Z,55.05
2022-12-16T01:39:53.501Z,57.20
2022-12-16T01:44:57.743Z,55.47
2022-12-16T01:50:03.396Z,57.78
2022-12-16T01:55:09.367Z,60.22
2022-12-16T02:00:13.915Z,55.03
2022-12-16T02:05:23.067Z,58.03
2022-12-16T02:10:29.472Z,55.42
2022-12-16T02:15:39.322Z,54.75
2022-12-16T02:20:54.600Z,55.63
2022-12-16T02:26:07.090Z,54.30
2022-12-16T02:31:20.886Z,58.20
2022-12-16T02:36:26.501Z,62.70
2022-12-16T02:41:34.126Z,56.42
2022-12-16T02:46:42.743Z,59.78
2022-12-16T02:51:45.635Z,62.28
2022-12-16T02:56:51.588Z,58.80
2022-12-16T03:01:56.979Z,67.80
2022-12-16T03:07:01.147Z,60.90
2022-12-16T03:12:05.735Z,65.22
2022-12-16T03:17:09.914Z,62.60
2022-12-16T03:22:13.746Z,62.80
2022-12-16T03:27:18.882Z,61.75
2022-12-16T03:32:24.500Z,62.53
2022-12-16T03:37:28.769Z,66.50
2022-12-16T03:42:31.593Z,65.75
2022-12-16T03:47:35.481Z,66.40
2022-12-16T03:52:37.884Z,65.13
2022-12-16T03:57:40.314Z,67.75
2022-12-16T04:02:44.463Z,67.75
2022-12-16T04:07:47.103Z,70.80
2022-12-16T04:13:07.110Z,61.90
2022-12-16T04:18:31.624Z,63.63
2022-12-16T04:23:53.095Z,77.85
2022-12-16T04:28:55.545Z,70.32
2022-12-16T04:34:16.917Z,69.70
2022-12-16T04:39:36.763Z,66.13
2022-12-16T04:44:56.811Z,64.75
2022-12-16T04:50:18.207Z,69.85
2022-12-16T04:55:38.045Z,61.20
2022-12-16T05:00:58.415Z,69.97
2022-12-16T05:06:19.603Z,68.40
2022-12-16T05:11:39.522Z,68.13
2022-12-16T05:16:59.408Z,66.55
2022-12-16T05:22:20.619Z,68.63
2022-12-16T05:27:40.567Z,61.20
2022-12-16T05:33:00.364Z,69.00
2022-12-16T05:38:21.762Z,73.78
2022-12-16T05:43:41.531Z,75.68
2022-12-16T05:49:01.441Z,72.22
2022-12-16T05:54:22.701Z,73.47
2022-12-16T05:59:43.021Z,76.53
2022-12-16T06:05:03.046Z,79.82
2022-12-16T06:10:24.880Z,73.63
2022-12-16T06:15:44.776Z,72.25
2022-12-16T06:21:01.121Z,74.70
2022-12-16T06:26:23.574Z,74.20
2022-12-16T06:31:43.540Z,69.00
2022-12-16T06:37:03.414Z,71.97
2022-12-16T06:42:25.507Z,78.25
2022-12-16T06:47:45.596Z,76.65
2022-12-16T06:53:05.448Z,85.72
2022-12-16T06:58:26.796Z,72.13
2022-12-16T07:03:46.945Z,78.10
2022-12-16T07:09:06.808Z,82.93
2022-12-16T07:14:27.873Z,80.57
2022-12-16T07:19:47.676Z,94.07
2022-12-16T07:25:07.617Z,91.80
2022-12-16T07:30:29.810Z,92.45
2022-12-16T07:35:49.705Z,103.53
2022-12-16T07:41:09.398Z,94.65
2022-12-16T07:46:30.687Z,94.28
2022-12-16T07:51:50.820Z,101.85
2022-12-16T07:57:11.107Z,95.82
2022-12-16T08:02:32.231Z,90.88
2022-12-16T08:07:52.528Z,107.00
2022-12-16T08:13:23.697Z,127.40
2022-12-16T08:18:46.591Z,97.00
2022-12-16T08:24:06.627Z,97.85
2022-12-16T08:29:43.762Z,89.05
2022-12-16T08:35:06.192Z,93.80
2022-12-16T08:40:35.269Z,88.20
2022-12-16T08:45:56.426Z,88.22
2022-12-16T08:51:19.409Z,82.05
2022-12-16T08:56:39.224Z,109.40
2022-12-16T09:01:59.286Z,101.47
2022-12-16T09:07:20.560Z,100.57
2022-12-16T09:12:40.800Z,96.70
2022-12-16T09:18:00.539Z,105.55
2022-12-16T09:23:22.108Z,99.45
2022-12-16T09:28:42.062Z,102.90
2022-12-16T09:34:02.148Z,92.28
2022-12-16T09:39:23.455Z,88.47
2022-12-16T09:44:54.730Z,91.80
2022-12-16T09:50:15.904Z,83.05
2022-12-16T09:55:41.227Z,84.85
2022-12-16T10:01:01.024Z,87.47
2022-12-16T10:06:30.810Z,96.40
2022-12-16T10:11:59.411Z,73.30
2022-12-16T10:17:22.212Z,89.15
2022-12-16T10:22:46.763Z,68.45
2022-12-16T10:28:08.299Z,73.05
2022-12-16T10:33:41.580Z,69.78
2022-12-16T10:39:03.850Z,75.07
2022-12-16T10:44:30.302Z,68.18
2022-12-16T10:49:54.829Z,67.60
2022-12-16T10:55:19.102Z,69.57
2022-12-16T11:00:56.689Z,62.67
2022-12-16T11:06:18.639Z,67.55
2022-12-16T11:11:40.132Z,66.78
2022-12-16T11:17:00.857Z,65.80
2022-12-16T11:22:24.874Z,64.07
2022-12-16T11:27:45.112Z,64.90
2022-12-16T11:33:08.263Z,67.72
2022-12-16T11:38:31.984Z,62.58
2022-12-16T11:43:51.791Z,64.10
2022-12-16T11:49:19.376Z,77.18
2022-12-16T11:54:45.263Z,68.88
2022-12-16T12:00:09.946Z,71.68
2022-12-16T12:11:07.803Z,70.60
2022-12-16T12:16:33.634Z,69.80
2022-12-16T12:21:57.269Z,89.57
2022-12-16T12:27:22.556Z,83.75
2022-12-16T12:32:46.260Z,92.20
2022-12-16T12:38:11.820Z,93.90
2022-12-16T12:43:42.624Z,105.03
2022-12-16T12:49:08.071Z,110.85
2022-12-16T12:54:47.558Z,128.73
2022-12-16T13:00:12.258Z,121.72
2022-12-16T13:10:54.848Z,142.07
2022-12-16T13:16:15.236Z,143.30
2022-12-16T13:21:56.143Z,146.07
2022-12-16T13:27:22.655Z,163.98
2022-12-16T13:32:43.970Z,145.10
2022-12-16T13:38:09.819Z,156.75
2022-12-16T13:43:56.650Z,149.68
2022-12-16T13:49:37.026Z,167.93
2022-12-16T13:55:01.888Z,159.70
2022-12-16T14:00:36.269Z,169.52
2022-12-16T14:06:01.894Z,165.18
2022-12-16T14:11:22.937Z,128.77
2022-12-16T14:16:53.099Z,136.95
2022-12-16T14:22:17.624Z,195.05
2022-12-16T14:27:39.002Z,158.75
2022-12-16T14:32:58.903Z,182.05
2022-12-16T14:38:38.982Z,179.93
2022-12-16T14:44:01.322Z,150.40
2022-12-16T14:49:21.075Z,158.57
2022-12-16T14:54:44.257Z,181.55
2022-12-16T15:00:04.704Z,177.07
2022-12-16T15:05:25.031Z,170.63
2022-12-16T15:10:46.672Z,192.82
2022-12-16T15:16:07.415Z,209.05
2022-12-16T15:21:27.829Z,187.15
2022-12-16T15:26:49.833Z,186.45
2022-12-16T15:32:09.777Z,192.65
2022-12-16T15:37:38.049Z,172.95
2022-12-16T15:42:59.402Z,177.65
2022-12-16T15:48:25.620Z,160.88
2022-12-16T15:53:48.084Z,120.55
2022-12-16T15:59:09.663Z,109.10
2022-12-16T16:04:36.588Z,108.88
2022-12-16T16:09:57.553Z,104.53
2022-12-16T16:15:19.274Z,106.88
2022-12-16T16:20:39.083Z,106.47
2022-12-16T16:26:03.667Z,107.35
2022-12-16T16:31:27.460Z,105.80
2022-12-16T16:36:47.650Z,103.72
2022-12-16T16:42:07.664Z,97.55
2022-12-16T16:47:33.624Z,104.47
2022-12-16T16:52:53.501Z,102.68
2022-12-16T16:58:13.202Z,101.43
2022-12-16T17:03:34.877Z,94.07
2022-12-16T17:08:55.297Z,110.38
2022-12-16T17:14:15.203Z,89.50
2022-12-16T17:19:36.364Z,91.57
2022-12-16T17:24:56.279Z,87.63
2022-12-16T17:30:16.158Z,89.30
2022-12-16T17:35:37.635Z,94.63
2022-12-16T17:40:57.543Z,85.75
2022-12-16T17:46:17.909Z,82.40
2022-12-16T17:51:39.132Z,88.05
2022-12-16T17:56:58.967Z,87.32
2022-12-16T18:02:18.869Z,100.82
2022-12-16T18:07:40.225Z,77.97
2022-12-16T18:13:00.581Z,69.50
2022-12-16T18:18:20.425Z,71.78
2022-12-16T18:23:41.556Z,62.80
2022-12-16T18:29:01.562Z,61.40
2022-12-16T18:34:21.363Z,69.45
2022-12-16T18:39:42.909Z,62.60
2022-12-16T18:45:03.817Z,66.70
2022-12-16T18:50:29.465Z,65.45
2022-12-16T18:55:53.014Z,72.82
2022-12-16T19:01:18.376Z,73.63
2022-12-16T19:06:38.325Z,73.78
2022-12-16T19:11:59.512Z,74.22
2022-12-16T19:17:19.492Z,75.43
2022-12-16T19:22:39.385Z,74.55
2022-12-16T19:28:00.574Z,75.18
2022-12-16T19:33:20.500Z,71.32
2022-12-16T19:38:40.522Z,77.82
2022-12-16T19:44:06.509Z,75.10
2022-12-16T19:49:44.559Z,83.97
2022-12-16T19:55:24.141Z,85.45
2022-12-16T20:00:45.159Z,85.70
2022-12-16T20:06:05.054Z,82.72
2022-12-16T20:11:25.492Z,82.47
2022-12-16T20:16:47.060Z,81.35
2022-12-16T20:27:46.985Z,88.25
2022-12-16T20:33:08.135Z,88.03
2022-12-16T20:38:28.448Z,112.93
2022-12-16T20:43:48.303Z,134.43
2022-12-16T20:49:09.539Z,145.63
2022-12-16T20:54:30.039Z,161.98
2022-12-16T20:59:58.392Z,168.18
2022-12-16T21:05:20.050Z,182.45
2022-12-16T21:10:40.437Z,179.32
2022-12-16T21:16:00.165Z,188.55
2022-12-16T21:21:21.376Z,199.93
2022-12-16T21:26:41.170Z,192.00
2022-12-16T21:32:01.224Z,189.43
2022-12-16T21:37:22.265Z,174.02
2022-12-16T21:42:44.113Z,175.18
2022-12-16T21:48:04.573Z,167.90
2022-12-16T21:53:25.829Z,163.73
2022-12-16T21:58:45.902Z,158.93
2022-12-16T22:04:06.006Z,151.38
2022-12-16T22:09:27.619Z,143.77
2022-12-16T22:14:47.361Z,134.90
2022-12-16T22:20:07.135Z,148.68
2022-12-16T22:25:28.625Z,127.88
2022-12-16T22:30:48.688Z,149.43
2022-12-16T22:36:09.496Z,146.10
2022-12-16T22:41:31.052Z,147.45
2022-12-16T22:46:50.935Z,157.70
2022-12-16T22:52:11.964Z,163.18
2022-12-16T22:57:33.507Z,159.57
2022-12-16T23:02:53.464Z,184.07
2022-12-16T23:08:14.311Z,157.73
2022-12-16T23:13:34.496Z,166.98
2022-12-16T23:18:56.474Z,155.45
2022-12-16T23:24:16.756Z,163.43
2022-12-16T23:29:38.205Z,165.70
2022-12-16T23:34:59.624Z,190.93
2022-12-16T23:40:19.721Z,141.95
2022-12-16T23:45:40.768Z,166.88
2022-12-16T23:51:00.612Z,155.88
2022-12-16T23:56:20.395Z,136.45
